• Join FlightAware (Why Join?)
  • Login
  • US Flag 
12:48AM EDT


 

Airport Tracker/Info


-or-


 

Live Flight TrackerFlight Track Log ✈ UAL3817 ✈ 20-Feb-2014 ✈ KDFW - KIAH

Flight Track Log - Related Links

Times and Time Zones

All times are in EST time to prevent confusion due to time zone crossing. See the UAL3817 flight status page for this flight to view local times or setup timezone preferences in your user account.

Time Position Orientation Groundspeed Altitude Reporting Facility
EST Latitude Longitude Course Direction KTS MPH feet Rate Location/Type
10:14AM 32.8333 -97.0333 180° South 205 236 3,200  Level Dallas / Fort Worth TRACON
10:16AM 32.6892 -97.0100 172° South 280 322 7,100 1,980 Climbing Fort Worth Center
10:17AM 32.6139 -96.9736 158° South 289 333 9,300 1,680 Climbing Fort Worth Center
10:18AM 32.5303 -96.9342 158° South 301 346 10,600 1,140 Climbing Fort Worth Center
10:19AM 32.4392 -96.8906 158° South 337 388 11,700 1,020 Climbing Fort Worth Center
10:20AM 32.3483 -96.8472 158° South 350 403 12,800 960 Climbing Fort Worth Center
10:21AM 32.2539 -96.8047 159° South 361 415 13,800 960 Climbing Fort Worth Center
10:22AM 32.1586 -96.7697 163° South 362 417 14,900 960 Climbing Fort Worth Center
10:23AM 32.0628 -96.7339 162° South 360 414 15,900 960 Climbing Fort Worth Center
10:24AM 31.9675 -96.6969 162° South 360 414 17,000 1,140 Climbing Fort Worth Center
10:25AM 31.8636 -96.6572 162° South 363 418 18,300 960 Climbing Fort Worth Center
10:26AM 31.7656 -96.6172 161° South 368 423 19,000 360 Climbing Fort Worth Center
10:27AM 31.6772 -96.5786 160° South 385 443 19,000  Level Houston Center
10:28AM 31.5694 -96.5344 161° South 401 461 19,000  Level Houston Center
10:29AM 31.4600 -96.4917 162° South 407 468 19,000  Level Houston Center
10:30AM 31.3322 -96.4433 162° South 408 470 19,000  Level Houston Center
10:31AM 31.2272 -96.3808 153° Southeast 420 483 19,000  Level Houston Center
10:32AM 31.1289 -96.3161 151° Southeast 402 463 19,000  Level Houston Center
10:33AM 31.0456 -96.2583 149° Southeast 351 404 19,000  Level Houston Center
10:34AM 30.9600 -96.2000 150° Southeast 352 405 19,000 -60 Level Houston Center
10:35AM 30.8631 -96.1353 150° Southeast 387 445 18,900 -1,440 Descending Houston Center
10:36AM 30.7647 -96.0703 150° Southeast 383 441 16,000 -2,640 Descending Houston Center
10:37AM 30.6703 -96.0061 150° Southeast 366 421 13,500 -2,280 Descending Houston Center
10:38AM 30.6092 -95.9661 151° Southeast 373 429 12,200 -1,500 Descending Houston Center
10:38AM 30.5872 -95.9500 148° Southeast 373 429 12,000 -300 Descending Houston Center
10:39AM 30.5422 -95.9231 153° Southeast 380 437 12,000  Level Houston Center
10:39AM 30.4772 -95.8781 149° Southeast 377 434 12,000  Level Houston Center
10:40AM 30.4439 -95.8519 146° Southeast 370 426 12,000 -120 Level Houston Center
10:40AM 30.4000 -95.8072 139° Southeast 355 409 11,900  Descending Houston Center
10:41AM 30.3747 -95.7825 140° Southeast 303 349 12,000 -420 Climbing Houston Center
10:41AM 30.3392 -95.7428 136° Southeast 305 351 11,500 -1,200 Descending Houston Center
10:42AM 30.3192 -95.7236 140° Southeast 297 342 10,900 -1,920 Descending Houston Center
10:42AM 30.2775 -95.6783 137° Southeast 298 343 9,600 -1,800 Descending Houston Center
10:43AM 30.2589 -95.6583 137° Southeast 298 343 9,000 -1,740 Descending Houston Center
10:43AM 30.2178 -95.6161 138° Southeast 292 336 7,800 -1,740 Descending Houston Center
10:44AM 30.1897 -95.5892 140° Southeast 280 322 7,200 -780 Descending Houston Center
10:44AM 30.1619 -95.5575 135° Southeast 276 318 7,000 -240 Descending Houston Center
10:45AM 30.1433 -95.5414 143° Southeast 245 282 7,000  Level Houston Center
10:46AM 30.1061 -95.4758 123° Southeast 244 281 7,000  Level Houston Center
10:47AM 30.1064 -95.4094 90° East 251 289 7,000  Level Houston Center
10:47AM 30.1050 -95.3939 96° East 254 292 7,000  Level Houston Center
10:48AM 30.1064 -95.3272 89° East 256 295 7,000  Level Houston Center
10:48AM 30.1058 -95.3117 92° East 257 296 7,000  Level Houston Center
10:49AM 30.1061 -95.2442 90° East 256 295 7,000  Level Houston Center
10:49AM 30.1067 -95.2294 87° East 259 298 7,000 -600 Level Houston Center
10:50AM 30.1061 -95.1611 91° East 257 296 6,400 -1,140 Descending Houston Center
10:50AM 30.1069 -95.1425 87° East 250 288 5,900 -2,160 Descending Houston Center
10:51AM 30.0917 -95.0694 104° East 226 260 4,000 -960 Descending Houston Center
10:52AM 30.0508 -95.0575 166° South 127 146 4,000 -240 Level Houston Center
10:53AM 30.0136 -95.0572 180° South 140 161 3,600 -540 Descending Houston Center
10:54AM 29.9944 -95.1056 245° Southwest 156 180 3,000 -360 Descending Houston Center
10:55AM 29.9922 -95.1519 267° West 156 180 2,900 -240 Descending Houston Center
10:55AM 29.9931 -95.1611 276° West 170 196 2,800 -900 Descending Houston Center
10:56AM 29.9939 -95.2142 271° West 165 190 2,000 -840 Descending Houston Center
10:57AM 29.9922 -95.2628 268° West 147 169 1,200 -660 Descending Houston Center
10:57AM 29.9931 -95.2567 81° East 163 188 1,300 -780 Climbing Houston Center
10:58AM 29.9925 -95.3058 269° West 146 168 400 -900 Descending Houston Center
10:58AM 29.9922 -95.3108 266° West 119 137 400 -120 Level Houston Center
10:59AM 29.9922 -95.3442 270° West 141 162 300 -120 Descending Houston Center